Time;durP1;ratioP1;P1;durP2;ratioP2;P2;SDS_P1;SDS_P2;PMS_P1;PMS_P2;Temp;Humidity;BMP_temperature;BMP_pressure;BME280_temperature;BME280_humidity;BME280_pressure;Samples;Min_cycle;Max_cycle;Signal;HPM_P1;HPM_P2
2021/12/16 00:02:21;;;;;;;6.40;3.45;;;;;;;;;;5015802;28;20748;-72
2021/12/16 00:07:36;;;;;;;8.55;3.60;;;;;;;;;;5033805;28;20425;-70
2021/12/16 00:29:42;;;;;;;4.85;3.55;;;;;;;;;;5015117;28;20045;-71
2021/12/16 00:32:22;;;;;;;6.35;3.85;;;;;;;;;;5015709;28;20128;-71
2021/12/16 00:34:53;;;;;;;6.18;3.78;;;;;;;;;;5016012;28;20049;-72
2021/12/16 00:37:21;;;;;;;5.35;3.60;;;;;;;;;;5015987;28;20046;-72
2021/12/16 00:39:49;;;;;;;6.57;3.58;;;;;;;;;;5033016;28;20042;-71
2021/12/16 00:54:06;;;;;;;7.03;3.00;;;;;;;;;;5032849;28;20049;-71
2021/12/16 00:55:57;;;;;;;5.40;3.28;;;;;;;;;;5015537;28;20050;-71
2021/12/16 00:58:29;;;;;;;5.63;3.10;;;;;;;;;;5015801;28;20069;-72
2021/12/16 01:01:09;;;;;;;6.70;3.47;;;;;;;;;;5015285;28;20080;-72
2021/12/16 01:04:40;;;;;;;6.25;3.75;;;;;;;;;;5014964;28;20562;-71
2021/12/16 01:34:27;;;;;;;5.53;2.80;;;;;;;;;;5018586;28;20053;-72
2021/12/16 01:37:41;;;;;;;4.93;2.78;;;;;;;;;;5019097;28;20069;-72
2021/12/16 01:45:36;;;;;;;4.57;2.70;;;;;;;;;;5029804;28;20103;-71
2021/12/16 01:46:25;;;;;;;5.10;2.75;;;;;;;;;;5017533;28;20132;-71
2021/12/16 01:51:21;;;;;;;4.63;2.60;;;;;;;;;;5053391;28;20492;-72
2021/12/16 01:54:54;;;;;;;3.72;2.42;;;;;;;;;;5037275;28;20670;-72
2021/12/16 01:59:34;;;;;;;4.80;2.65;;;;;;;;;;5036340;28;20060;-72
2021/12/16 02:02:13;;;;;;;3.70;2.28;;;;;;;;;;5036625;28;20651;-72
2021/12/16 02:05:05;;;;;;;3.90;2.50;;;;;;;;;;5036836;28;20447;-71
2021/12/16 02:08:12;;;;;;;4.95;2.40;;;;;;;;;;5037029;28;20044;-71
2021/12/16 02:10:23;;;;;;;3.97;2.30;;;;;;;;;;5054483;28;20041;-71
2021/12/16 02:32:27;;;;;;;3.38;2.00;;;;;;;;;;5036410;28;20051;-72
2021/12/16 02:37:43;;;;;;;2.42;1.70;;;;;;;;;;5036170;28;20456;-72
2021/12/16 02:40:11;;;;;;;2.70;2.00;;;;;;;;;;5035661;28;20048;-71
2021/12/16 02:43:02;;;;;;;2.70;1.92;;;;;;;;;;5036370;28;20073;-72
2021/12/16 02:48:37;;;;;;;4.57;2.40;;;;;;;;;;4987131;28;1408708;-72
2021/12/16 02:51:06;;;;;;;3.15;2.10;;;;;;;;;;5037106;28;20040;-72
2021/12/16 02:53:34;;;;;;;2.20;2.00;;;;;;;;;;5036983;28;20048;-71
2021/12/16 02:56:02;;;;;;;8.13;2.53;;;;;;;;;;5036957;28;20072;-71
2021/12/16 02:58:29;;;;;;;2.80;1.92;;;;;;;;;;5037587;28;20049;-71
2021/12/16 03:01:11;;;;;;;3.85;1.88;;;;;;;;;;5036951;28;20139;-71
2021/12/16 03:03:39;;;;;;;3.58;2.25;;;;;;;;;;5036664;28;20092;-72
2021/12/16 03:06:10;;;;;;;7.13;2.85;;;;;;;;;;5037029;28;20048;-72
2021/12/16 03:08:41;;;;;;;4.00;2.50;;;;;;;;;;5037128;28;20049;-71
2021/12/16 03:11:34;;;;;;;3.72;2.33;;;;;;;;;;5037094;28;20044;-72
2021/12/16 03:19:55;;;;;;;6.40;2.28;;;;;;;;;;5011564;28;20053;-71
2021/12/16 03:22:53;;;;;;;4.43;2.40;;;;;;;;;;5036570;28;20072;-71
2021/12/16 03:25:50;;;;;;;6.85;2.20;;;;;;;;;;5036663;28;20049;-71
2021/12/16 03:36:31;;;;;;;3.33;2.33;;;;;;;;;;5036448;28;20045;-74
2021/12/16 03:39:02;;;;;;;3.05;1.95;;;;;;;;;;5054234;28;20123;-73
2021/12/16 03:41:32;;;;;;;6.93;2.53;;;;;;;;;;5036264;28;20044;-74
2021/12/16 03:44:00;;;;;;;5.13;2.25;;;;;;;;;;5036414;28;20049;-74
2021/12/16 03:46:31;;;;;;;2.25;2.05;;;;;;;;;;5054426;28;20049;-74
2021/12/16 03:49:20;;;;;;;4.15;2.20;;;;;;;;;;5036118;28;20140;-73
2021/12/16 03:51:50;;;;;;;2.30;2.08;;;;;;;;;;5052492;28;20045;-72
2021/12/16 03:54:22;;;;;;;3.13;2.00;;;;;;;;;;5035878;28;20061;-72
2021/12/16 03:56:54;;;;;;;3.88;2.20;;;;;;;;;;5036009;28;20103;-71
2021/12/16 03:59:27;;;;;;;2.50;2.30;;;;;;;;;;5035929;28;20110;-73
2021/12/16 04:02:06;;;;;;;5.90;2.40;;;;;;;;;;5020623;28;20463;-72
2021/12/16 04:04:40;;;;;;;2.92;2.08;;;;;;;;;;5035515;28;20091;-71
2021/12/16 04:07:08;;;;;;;4.75;2.15;;;;;;;;;;5035844;28;20072;-72
2021/12/16 04:09:59;;;;;;;5.13;1.80;;;;;;;;;;5053708;28;20136;-71
2021/12/16 04:12:28;;;;;;;3.35;2.00;;;;;;;;;;5036065;28;20041;-72
2021/12/16 04:14:58;;;;;;;2.97;1.90;;;;;;;;;;5036134;28;20052;-72
2021/12/16 04:17:30;;;;;;;2.70;2.00;;;;;;;;;;5035229;28;20048;-72
2021/12/16 04:20:03;;;;;;;3.90;1.80;;;;;;;;;;5019937;28;20045;-72
2021/12/16 04:22:36;;;;;;;6.25;2.30;;;;;;;;;;5035307;28;20049;-72
2021/12/16 04:25:08;;;;;;;2.72;1.73;;;;;;;;;;5035383;28;20099;-71
2021/12/16 04:27:37;;;;;;;2.30;2.10;;;;;;;;;;5035387;28;20069;-71
2021/12/16 04:30:06;;;;;;;4.25;1.90;;;;;;;;;;5035544;28;20045;-71
2021/12/16 04:32:37;;;;;;;1.80;1.70;;;;;;;;;;5035655;28;20052;-72
2021/12/16 04:35:05;;;;;;;2.95;1.85;;;;;;;;;;5035435;28;20099;-71
2021/12/16 04:37:36;;;;;;;4.32;1.98;;;;;;;;;;5035615;28;20103;-71
2021/12/16 04:40:07;;;;;;;2.33;1.88;;;;;;;;;;5034973;28;20115;-72
2021/12/16 04:42:37;;;;;;;2.43;1.90;;;;;;;;;;5035516;28;20045;-72
2021/12/16 04:45:06;;;;;;;4.03;2.03;;;;;;;;;;5034833;28;20052;-72
2021/12/16 04:47:35;;;;;;;2.72;2.05;;;;;;;;;;5035276;28;20412;-71
2021/12/16 04:50:07;;;;;;;3.20;2.00;;;;;;;;;;5034921;28;20053;-72
2021/12/16 04:52:35;;;;;;;4.05;2.42;;;;;;;;;;5035137;28;20397;-72
2021/12/16 04:55:06;;;;;;;2.72;2.20;;;;;;;;;;5035337;28;20045;-71
2021/12/16 04:57:35;;;;;;;2.17;1.98;;;;;;;;;;5035319;28;20045;-71
2021/12/16 05:00:04;;;;;;;3.17;2.15;;;;;;;;;;5035134;28;20060;-72
2021/12/16 05:02:36;;;;;;;3.55;2.25;;;;;;;;;;5034944;28;20388;-71
2021/12/16 05:05:14;;;;;;;5.78;2.53;;;;;;;;;;5034916;28;20041;-72
2021/12/16 05:07:44;;;;;;;4.18;2.33;;;;;;;;;;5035177;28;20404;-71
2021/12/16 05:10:23;;;;;;;2.83;2.30;;;;;;;;;;5034795;28;20501;-72
2021/12/16 05:13:05;;;;;;;7.80;3.60;;;;;;;;;;5035135;28;20373;-73
2021/12/16 05:15:37;;;;;;;5.78;3.08;;;;;;;;;;5034771;28;20111;-74
2021/12/16 05:18:09;;;;;;;6.88;2.72;;;;;;;;;;5035371;28;20127;-73
2021/12/16 05:20:46;;;;;;;4.35;2.33;;;;;;;;;;5034566;28;20048;-73
2021/12/16 05:28:42;;;;;;;3.75;2.38;;;;;;;;;;5034690;28;20102;-73
2021/12/16 05:31:11;;;;;;;3.20;2.33;;;;;;;;;;5034705;28;20045;-73
2021/12/16 05:33:43;;;;;;;4.45;2.40;;;;;;;;;;5035415;28;20041;-73
2021/12/16 05:36:11;;;;;;;3.53;2.67;;;;;;;;;;5034874;28;20041;-73
2021/12/16 05:38:39;;;;;;;7.50;3.15;;;;;;;;;;5034579;28;20129;-74
2021/12/16 05:41:08;;;;;;;4.80;2.95;;;;;;;;;;5034447;28;20072;-74
2021/12/16 05:43:38;;;;;;;8.18;3.08;;;;;;;;;;5034950;28;20052;-73
2021/12/16 05:46:08;;;;;;;5.82;3.00;;;;;;;;;;5034274;28;20049;-73
2021/12/16 05:48:38;;;;;;;10.10;3.92;;;;;;;;;;5018327;28;20053;-74
2021/12/16 05:51:10;;;;;;;8.98;4.85;;;;;;;;;;5034089;28;20045;-73
2021/12/16 05:53:39;;;;;;;18.55;6.63;;;;;;;;;;5018297;28;20051;-71
2021/12/16 05:56:16;;;;;;;20.30;6.97;;;;;;;;;;5035162;28;20045;-72
2021/12/16 05:58:44;;;;;;;16.02;7.70;;;;;;;;;;5037006;28;20477;-73
2021/12/16 06:01:19;;;;;;;16.95;7.28;;;;;;;;;;5038233;28;20075;-74
2021/12/16 06:03:47;;;;;;;16.75;7.57;;;;;;;;;;5038174;28;20054;-73
2021/12/16 06:06:15;;;;;;;20.15;7.43;;;;;;;;;;5038158;28;20049;-73
2021/12/16 06:08:45;;;;;;;13.52;7.20;;;;;;;;;;5037843;28;20063;-72
2021/12/16 06:11:20;;;;;;;14.35;7.03;;;;;;;;;;5056134;28;20045;-72
2021/12/16 06:27:37;;;;;;;11.10;3.60;;;;;;;;;;5055610;28;20049;-72
2021/12/16 06:30:09;;;;;;;12.63;3.30;;;;;;;;;;5055421;28;20475;-72
2021/12/16 06:32:36;;;;;;;13.60;3.60;;;;;;;;;;5037523;28;20040;-71
2021/12/16 06:35:08;;;;;;;9.95;3.10;;;;;;;;;;5055412;28;20040;-72
2021/12/16 06:37:36;;;;;;;11.18;3.30;;;;;;;;;;5055142;28;20124;-72
2021/12/16 06:40:11;;;;;;;7.45;3.42;;;;;;;;;;5036931;28;20072;-73
2021/12/16 06:43:11;;;;;;;10.45;2.75;;;;;;;;;;5023443;28;20064;-75
2021/12/16 06:45:42;;;;;;;7.05;3.35;;;;;;;;;;5036909;28;20396;-76
2021/12/16 06:48:14;;;;;;;7.65;3.40;;;;;;;;;;5054659;28;20129;-74
2021/12/16 06:50:53;;;;;;;14.18;3.97;;;;;;;;;;5054656;28;20552;-75
2021/12/16 06:53:30;;;;;;;13.02;3.88;;;;;;;;;;5053976;28;20076;-72
2021/12/16 06:56:11;;;;;;;11.30;3.60;;;;;;;;;;5055374;28;20041;-73
2021/12/16 06:58:52;;;;;;;10.45;4.15;;;;;;;;;;5053951;28;20116;-72
2021/12/16 07:01:37;;;;;;;11.68;3.75;;;;;;;;;;5037282;28;20128;-73
2021/12/16 07:04:07;;;;;;;13.73;3.92;;;;;;;;;;5054642;28;20126;-72
2021/12/16 07:06:38;;;;;;;15.45;4.30;;;;;;;;;;5054432;28;20052;-73
2021/12/16 07:09:11;;;;;;;18.88;5.32;;;;;;;;;;5053589;28;20063;-71
2021/12/16 07:11:41;;;;;;;12.40;5.20;;;;;;;;;;5055030;28;20041;-73
2021/12/16 07:14:15;;;;;;;18.17;5.73;;;;;;;;;;5054658;28;20041;-72
2021/12/16 07:16:54;;;;;;;13.18;6.07;;;;;;;;;;5054481;28;20045;-72
2021/12/16 07:19:22;;;;;;;13.13;5.82;;;;;;;;;;5054372;28;20037;-74
2021/12/16 07:21:49;;;;;;;12.60;5.35;;;;;;;;;;5054483;28;20045;-72
2021/12/16 07:24:18;;;;;;;11.32;5.30;;;;;;;;;;5054306;28;20047;-72
2021/12/16 07:26:47;;;;;;;15.93;5.05;;;;;;;;;;5054464;28;20127;-73
2021/12/16 07:29:35;;;;;;;11.93;4.40;;;;;;;;;;5051862;28;20041;-72
2021/12/16 07:32:03;;;;;;;13.63;5.32;;;;;;;;;;5053781;28;20029;-73
2021/12/16 07:34:30;;;;;;;11.05;4.65;;;;;;;;;;5053690;28;20036;-72
2021/12/16 07:37:00;;;;;;;9.65;5.15;;;;;;;;;;5053655;28;20029;-74
2021/12/16 07:39:37;;;;;;;10.00;4.68;;;;;;;;;;5051971;28;20068;-72
2021/12/16 07:42:11;;;;;;;12.35;4.47;;;;;;;;;;5050917;28;20112;-75
2021/12/16 07:44:38;;;;;;;9.63;4.95;;;;;;;;;;5053417;28;20056;-73
2021/12/16 07:47:11;;;;;;;10.98;4.53;;;;;;;;;;5056236;28;20121;-72
2021/12/16 07:49:40;;;;;;;11.95;4.70;;;;;;;;;;5039907;28;20819;-75
2021/12/16 07:52:19;;;;;;;9.80;5.15;;;;;;;;;;5053144;28;20116;-73
2021/12/16 07:54:54;;;;;;;15.07;5.20;;;;;;;;;;5053459;28;20037;-74
2021/12/16 07:57:21;;;;;;;19.83;6.65;;;;;;;;;;5053304;28;20397;-73
2021/12/16 07:59:49;;;;;;;17.75;5.93;;;;;;;;;;5036031;28;20477;-71
2021/12/16 08:02:17;;;;;;;220.70;23.70;;;;;;;;;;5035694;28;20563;-72
2021/12/16 08:04:45;;;;;;;19.50;6.28;;;;;;;;;;5053095;28;20052;-72
2021/12/16 08:07:18;;;;;;;25.15;8.55;;;;;;;;;;5053466;28;20047;-74
2021/12/16 08:09:48;;;;;;;18.88;7.28;;;;;;;;;;5053753;28;20057;-73
2021/12/16 08:12:18;;;;;;;21.00;7.35;;;;;;;;;;5053306;28;20432;-74
2021/12/16 08:14:47;;;;;;;19.33;8.35;;;;;;;;;;5056064;28;20120;-72
2021/12/16 08:17:15;;;;;;;34.20;9.30;;;;;;;;;;5040887;28;20037;-74
2021/12/16 08:19:45;;;;;;;34.25;8.88;;;;;;;;;;5053052;28;20041;-73
2021/12/16 08:22:13;;;;;;;17.40;8.15;;;;;;;;;;5052919;28;20068;-73
2021/12/16 08:24:42;;;;;;;30.48;9.07;;;;;;;;;;5052597;28;20052;-74
2021/12/16 08:27:12;;;;;;;26.75;9.48;;;;;;;;;;5052572;28;20051;-75
2021/12/16 08:29:39;;;;;;;35.50;11.52;;;;;;;;;;5052896;28;20116;-73
2021/12/16 08:32:14;;;;;;;42.17;12.20;;;;;;;;;;5052978;28;20488;-74
2021/12/16 08:34:45;;;;;;;36.72;12.27;;;;;;;;;;5052902;28;20037;-75
2021/12/16 08:37:16;;;;;;;29.63;10.60;;;;;;;;;;5052714;28;20489;-73
2021/12/16 08:39:45;;;;;;;22.08;11.15;;;;;;;;;;5052749;28;20080;-73
2021/12/16 08:42:12;;;;;;;32.05;11.10;;;;;;;;;;5035282;28;20045;-75
2021/12/16 08:44:41;;;;;;;20.80;10.10;;;;;;;;;;5052746;28;20114;-73
2021/12/16 08:47:10;;;;;;;33.28;12.77;;;;;;;;;;5052590;28;20049;-72
2021/12/16 08:49:39;;;;;;;27.95;10.23;;;;;;;;;;5052787;28;20052;-73
2021/12/16 08:52:09;;;;;;;21.88;10.57;;;;;;;;;;5052530;28;20087;-73
2021/12/16 08:54:39;;;;;;;22.60;9.73;;;;;;;;;;5052480;28;20040;-73
2021/12/16 08:57:07;;;;;;;36.15;10.93;;;;;;;;;;5052632;28;20045;-71
2021/12/16 08:59:35;;;;;;;28.70;9.60;;;;;;;;;;5052510;28;20075;-72
2021/12/16 09:02:10;;;;;;;30.48;9.80;;;;;;;;;;5052643;28;20430;-73
2021/12/16 09:04:40;;;;;;;35.88;9.23;;;;;;;;;;5051208;28;20073;-71
2021/12/16 09:07:09;;;;;;;17.80;8.23;;;;;;;;;;5054764;28;20048;-71
2021/12/16 09:09:39;;;;;;;22.27;8.77;;;;;;;;;;5070429;28;20102;-71
2021/12/16 09:12:15;;;;;;;22.58;8.93;;;;;;;;;;5072741;28;20040;-72
2021/12/16 09:14:47;;;;;;;30.67;9.00;;;;;;;;;;5072579;28;20041;-71
2021/12/16 09:17:18;;;;;;;32.45;10.48;;;;;;;;;;5072461;28;20064;-70
2021/12/16 09:19:49;;;;;;;30.10;9.65;;;;;;;;;;5072380;28;20446;-71
2021/12/16 09:22:17;;;;;;;24.45;9.88;;;;;;;;;;5070752;28;20217;-73
2021/12/16 09:24:46;;;;;;;23.98;10.82;;;;;;;;;;5041361;28;20511;-71
2021/12/16 09:27:15;;;;;;;22.10;10.88;;;;;;;;;;5052791;28;20041;-71
2021/12/16 09:29:44;;;;;;;21.17;11.13;;;;;;;;;;5035213;28;20516;-72
2021/12/16 09:32:11;;;;;;;29.65;11.23;;;;;;;;;;5052407;28;20041;-72
2021/12/16 09:34:42;;;;;;;35.15;13.30;;;;;;;;;;5056755;28;20045;-72
2021/12/16 09:37:10;;;;;;;21.55;10.23;;;;;;;;;;5056064;28;20037;-73
2021/12/16 09:39:38;;;;;;;26.58;9.75;;;;;;;;;;5056010;28;20045;-72
2021/12/16 09:42:09;;;;;;;14.55;8.40;;;;;;;;;;5037832;28;20048;-71
2021/12/16 09:44:39;;;;;;;18.42;8.60;;;;;;;;;;5055969;28;20102;-72
2021/12/16 09:47:12;;;;;;;25.90;8.50;;;;;;;;;;5056135;28;20059;-73
2021/12/16 09:49:40;;;;;;;20.90;9.02;;;;;;;;;;5055395;28;20041;-71
2021/12/16 09:52:10;;;;;;;14.27;7.47;;;;;;;;;;5060136;28;20037;-73
2021/12/16 09:54:39;;;;;;;15.57;8.48;;;;;;;;;;5060331;28;20408;-71
2021/12/16 09:57:08;;;;;;;11.20;6.35;;;;;;;;;;5045987;28;20044;-73
2021/12/16 09:59:36;;;;;;;16.67;7.57;;;;;;;;;;5060029;28;20470;-72
2021/12/16 10:02:07;;;;;;;18.63;8.23;;;;;;;;;;5057014;28;20076;-73
2021/12/16 10:04:35;;;;;;;15.55;8.70;;;;;;;;;;5045829;28;20080;-71
2021/12/16 10:07:06;;;;;;;19.13;8.75;;;;;;;;;;5043533;28;20040;-72
2021/12/16 10:09:34;;;;;;;18.65;8.93;;;;;;;;;;5055187;28;20045;-72
2021/12/16 10:12:08;;;;;;;16.25;9.35;;;;;;;;;;5037344;28;20033;-75
2021/12/16 10:17:32;;;;;;;16.17;7.60;;;;;;;;;;5053607;28;20052;-72
2021/12/16 10:20:02;;;;;;;23.58;11.70;;;;;;;;;;5053742;28;20049;-73
2021/12/16 10:22:33;;;;;;;23.02;9.90;;;;;;;;;;5055304;28;20043;-72
2021/12/16 10:25:19;;;;;;;20.58;9.68;;;;;;;;;;5055178;28;20041;-72
2021/12/16 10:27:56;;;;;;;15.10;7.03;;;;;;;;;;5055119;28;20544;-72
2021/12/16 10:30:35;;;;;;;13.70;7.28;;;;;;;;;;5036726;28;20084;-74
2021/12/16 10:33:10;;;;;;;16.15;7.35;;;;;;;;;;5053211;28;20052;-73
2021/12/16 10:35:38;;;;;;;11.25;7.20;;;;;;;;;;5055379;28;20049;-75
2021/12/16 10:38:07;;;;;;;9.70;4.97;;;;;;;;;;5054749;28;20042;-74
2021/12/16 10:40:37;;;;;;;48.30;6.72;;;;;;;;;;5053801;28;20049;-72
2021/12/16 10:43:11;;;;;;;17.45;4.40;;;;;;;;;;5037061;28;20523;-74
2021/12/16 10:45:41;;;;;;;14.45;4.50;;;;;;;;;;5054589;28;20131;-72
2021/12/16 10:48:27;;;;;;;10.02;4.90;;;;;;;;;;5114288;23;20071;-71
2021/12/16 10:50:54;;;;;;;6.30;4.00;;;;;;;;;;5035289;28;20072;-71
2021/12/16 10:53:41;;;;;;;16.38;3.53;;;;;;;;;;5034229;28;20046;-72
2021/12/16 10:56:09;;;;;;;4.70;2.80;;;;;;;;;;5035521;28;20042;-77
2021/12/16 10:58:57;;;;;;;6.22;3.58;;;;;;;;;;5034978;28;20124;-73
2021/12/16 11:01:30;;;;;;;6.10;3.15;;;;;;;;;;5035000;28;20037;-72
2021/12/16 11:03:57;;;;;;;;;;;;;;;;;;5035273;28;20045;-74
2021/12/16 11:06:30;;;;;;;7.88;4.07;;;;;;;;;;5034112;28;20422;-72
2021/12/16 11:09:16;;;;;;;4.93;3.08;;;;;;;;;;5034465;28;20144;-74
2021/12/16 11:11:45;;;;;;;12.07;4.47;;;;;;;;;;5034968;28;20192;-73
2021/12/16 11:14:21;;;;;;;9.65;5.00;;;;;;;;;;5034784;28;20386;-73
2021/12/16 11:16:57;;;;;;;5.95;3.33;;;;;;;;;;5034387;28;20057;-74
2021/12/16 11:19:37;;;;;;;8.88;3.60;;;;;;;;;;5034506;28;20045;-72
2021/12/16 11:22:06;;;;;;;3.85;2.92;;;;;;;;;;5034585;28;20484;-72
2021/12/16 11:24:34;;;;;;;7.45;3.85;;;;;;;;;;5034307;28;20045;-71
2021/12/16 11:27:22;;;;;;;5.90;2.53;;;;;;;;;;5016675;28;20055;-73
2021/12/16 11:29:50;;;;;;;5.97;3.08;;;;;;;;;;5033998;28;20045;-72
2021/12/16 11:32:35;;;;;;;5.35;3.08;;;;;;;;;;5034667;28;20370;-73
2021/12/16 11:35:26;;;;;;;3.05;2.17;;;;;;;;;;5034580;28;20038;-73
2021/12/16 11:37:59;;;;;;;2.97;2.60;;;;;;;;;;5029939;28;20049;-73
2021/12/16 11:40:27;;;;;;;6.57;3.63;;;;;;;;;;5034233;28;20124;-72
2021/12/16 11:43:02;;;;;;;5.93;3.53;;;;;;;;;;5016573;28;20492;-72
2021/12/16 11:45:41;;;;;;;7.85;3.30;;;;;;;;;;5034013;28;20500;-73
2021/12/16 11:48:26;;;;;;;6.03;4.00;;;;;;;;;;5034140;28;20064;-74
2021/12/16 11:51:02;;;;;;;5.55;3.88;;;;;;;;;;5016785;28;20056;-72
2021/12/16 11:53:37;;;;;;;5.85;3.17;;;;;;;;;;5033337;28;20128;-72
2021/12/16 11:56:06;;;;;;;7.18;3.67;;;;;;;;;;5033526;28;20071;-72
2021/12/16 11:58:35;;;;;;;11.20;3.73;;;;;;;;;;5032500;28;20152;-72
2021/12/16 12:01:14;;;;;;;5.53;3.30;;;;;;;;;;5034094;28;20057;-71
2021/12/16 12:03:43;;;;;;;7.78;2.95;;;;;;;;;;5033789;28;20096;-75
2021/12/16 12:06:18;;;;;;;11.85;4.55;;;;;;;;;;5033448;28;20126;-73
2021/12/16 12:08:51;;;;;;;7.72;4.60;;;;;;;;;;5033541;28;20508;-72
2021/12/16 12:11:25;;;;;;;6.55;3.53;;;;;;;;;;5033301;28;20057;-73
2021/12/16 12:13:57;;;;;;;7.70;3.50;;;;;;;;;;5016180;28;20049;-72
2021/12/16 12:16:35;;;;;;;10.27;3.67;;;;;;;;;;5033449;28;20128;-71
2021/12/16 12:19:18;;;;;;;10.60;5.22;;;;;;;;;;5033804;28;20041;-74
2021/12/16 12:21:56;;;;;;;4.53;2.75;;;;;;;;;;5033145;28;20041;-72
2021/12/16 12:24:32;;;;;;;4.80;3.17;;;;;;;;;;5033272;28;20404;-71
2021/12/16 12:27:11;;;;;;;6.45;3.63;;;;;;;;;;5033454;28;20069;-74
2021/12/16 12:29:41;;;;;;;6.88;3.33;;;;;;;;;;5015329;28;20140;-72
2021/12/16 12:32:28;;;;;;;3.67;2.90;;;;;;;;;;5033348;28;20107;-72
2021/12/16 12:34:57;;;;;;;8.77;3.20;;;;;;;;;;5033699;28;20037;-72
2021/12/16 12:37:41;;;;;;;40.40;6.45;;;;;;;;;;5026003;28;20042;-72
2021/12/16 12:40:17;;;;;;;18.50;5.20;;;;;;;;;;5032385;28;20416;-72
2021/12/16 12:42:47;;;;;;;10.30;3.38;;;;;;;;;;5033023;28;20120;-73
2021/12/16 12:45:17;;;;;;;5.40;3.00;;;;;;;;;;5033574;28;20389;-74
2021/12/16 12:47:46;;;;;;;40.97;6.03;;;;;;;;;;5025400;28;20488;-75
2021/12/16 12:50:18;;;;;;;33.17;4.85;;;;;;;;;;5033505;28;20045;-73
2021/12/16 12:52:50;;;;;;;7.03;3.28;;;;;;;;;;5015508;28;20434;-74
2021/12/16 12:55:21;;;;;;;5.83;2.90;;;;;;;;;;5033108;28;20053;-73
2021/12/16 12:57:49;;;;;;;7.75;3.13;;;;;;;;;;5032917;28;20280;-73
2021/12/16 13:00:31;;;;;;;6.97;3.00;;;;;;;;;;5033250;28;20089;-72
2021/12/16 13:03:12;;;;;;;7.85;3.05;;;;;;;;;;5033180;28;20045;-74
2021/12/16 13:05:41;;;;;;;5.32;2.50;;;;;;;;;;5032643;28;20054;-73
2021/12/16 13:08:12;;;;;;;4.45;2.70;;;;;;;;;;5036835;28;20065;-75
2021/12/16 13:10:40;;;;;;;5.38;2.78;;;;;;;;;;5037644;28;20056;-73
2021/12/16 13:16:18;;;;;;;4.93;2.28;;;;;;;;;;5036976;28;20033;-72
2021/12/16 13:27:08;;;;;;;2.35;1.90;;;;;;;;;;5036444;28;20405;-72
2021/12/16 13:29:43;;;;;;;4.75;1.58;;;;;;;;;;5026245;28;20553;-73
2021/12/16 13:32:25;;;;;;;3.95;2.03;;;;;;;;;;5023177;28;20584;-72
2021/12/16 13:35:08;;;;;;;3.83;2.15;;;;;;;;;;5025505;28;20048;-74
2021/12/16 13:37:39;;;;;;;7.65;2.60;;;;;;;;;;5025743;28;20104;-73
2021/12/16 13:40:17;;;;;;;4.70;1.90;;;;;;;;;;5025827;28;20041;-73
2021/12/16 13:42:50;;;;;;;1.92;1.48;;;;;;;;;;5025743;28;20053;-73
2021/12/16 13:45:25;;;;;;;4.72;2.40;;;;;;;;;;5025813;28;20554;-75
2021/12/16 13:48:32;;;;;;;6.53;1.95;;;;;;;;;;5021879;28;20165;-72
2021/12/16 14:07:58;;;;;;;9.10;2.22;;;;;;;;;;5035392;28;20045;-73
2021/12/16 14:39:40;;;;;;;4.88;2.10;;;;;;;;;;5001340;28;20080;-73
2021/12/16 14:50:21;;;;;;;1.70;1.58;;;;;;;;;;5034957;28;20057;-71
2021/12/16 14:52:49;;;;;;;1.90;1.60;;;;;;;;;;5034568;28;20076;-72
2021/12/16 14:55:18;;;;;;;44.85;4.75;;;;;;;;;;5034229;28;20038;-72
2021/12/16 14:57:50;;;;;;;4.93;2.08;;;;;;;;;;5034815;28;20069;-73
2021/12/16 15:00:28;;;;;;;8.85;2.22;;;;;;;;;;5035165;28;20444;-71
2021/12/16 15:03:04;;;;;;;5.88;2.50;;;;;;;;;;5034524;28;20054;-73
2021/12/16 15:05:46;;;;;;;2.63;2.30;;;;;;;;;;5033834;28;20062;-71
2021/12/16 15:08:21;;;;;;;5.68;2.20;;;;;;;;;;5034523;28;20103;-71
2021/12/16 15:10:50;;;;;;;2.65;1.52;;;;;;;;;;5034606;28;20044;-72
2021/12/16 15:13:26;;;;;;;6.93;2.45;;;;;;;;;;5034656;28;20038;-73
2021/12/16 15:16:23;;;;;;;7.57;2.60;;;;;;;;;;5034362;28;20069;-73
2021/12/16 15:39:08;;;;;;;5.65;2.95;;;;;;;;;;5034015;28;20046;-74
2021/12/16 15:44:22;;;;;;;11.02;3.15;;;;;;;;;;5033923;28;20053;-74
2021/12/16 15:46:51;;;;;;;5.40;2.70;;;;;;;;;;5033896;28;20041;-73
2021/12/16 15:49:22;;;;;;;5.85;2.70;;;;;;;;;;5034018;28;20091;-72
2021/12/16 15:51:51;;;;;;;12.77;3.33;;;;;;;;;;5033741;28;20124;-71
2021/12/16 15:54:22;;;;;;;13.32;4.05;;;;;;;;;;5033232;28;20103;-71
2021/12/16 15:56:51;;;;;;;5.93;2.45;;;;;;;;;;5033770;28;20037;-73
2021/12/16 15:59:21;;;;;;;8.52;2.83;;;;;;;;;;5033864;28;20120;-73
2021/12/16 16:01:53;;;;;;;6.15;2.70;;;;;;;;;;5015220;28;20045;-73
2021/12/16 16:04:29;;;;;;;5.13;3.45;;;;;;;;;;5033031;28;20055;-74
2021/12/16 16:07:00;;;;;;;6.68;3.08;;;;;;;;;;5015708;28;20128;-73
2021/12/16 16:09:35;;;;;;;8.20;3.97;;;;;;;;;;5033592;28;20056;-73
2021/12/16 16:12:05;;;;;;;6.30;3.10;;;;;;;;;;5033374;28;20050;-75
2021/12/16 16:14:33;;;;;;;7.70;3.83;;;;;;;;;;5033264;28;20037;-74
2021/12/16 16:17:02;;;;;;;9.82;3.42;;;;;;;;;;5033364;28;20069;-73
2021/12/16 16:19:37;;;;;;;8.35;4.30;;;;;;;;;;5015649;28;20128;-74
2021/12/16 16:22:05;;;;;;;5.28;3.55;;;;;;;;;;5033589;28;20037;-73
2021/12/16 16:24:33;;;;;;;5.63;3.38;;;;;;;;;;5033177;28;20061;-73
2021/12/16 16:27:02;;;;;;;3.47;2.78;;;;;;;;;;5033292;28;20504;-73
2021/12/16 16:29:31;;;;;;;6.13;3.03;;;;;;;;;;5032697;28;20049;-73
2021/12/16 16:32:03;;;;;;;5.22;2.72;;;;;;;;;;5033279;28;20049;-75
2021/12/16 16:34:39;;;;;;;5.72;3.10;;;;;;;;;;5033321;28;20043;-74
2021/12/16 16:37:10;;;;;;;4.68;3.05;;;;;;;;;;5032740;28;20485;-76
2021/12/16 16:39:42;;;;;;;10.43;3.70;;;;;;;;;;5015449;28;20044;-72
2021/12/16 16:42:18;;;;;;;6.68;3.40;;;;;;;;;;5032820;28;20124;-71
2021/12/16 16:44:53;;;;;;;15.00;4.30;;;;;;;;;;5032622;28;20602;-71
2021/12/16 16:47:33;;;;;;;6.95;3.83;;;;;;;;;;5012549;28;20128;-71
2021/12/16 16:50:01;;;;;;;7.80;3.70;;;;;;;;;;5032608;28;20073;-72
2021/12/16 16:52:29;;;;;;;7.65;3.70;;;;;;;;;;5033129;28;20049;-73
2021/12/16 16:55:05;;;;;;;15.18;4.28;;;;;;;;;;5033745;28;20056;-73
2021/12/16 16:57:39;;;;;;;8.63;3.85;;;;;;;;;;5030638;28;20055;-73
2021/12/16 17:00:12;;;;;;;8.48;3.47;;;;;;;;;;5018948;28;20123;-71
2021/12/16 17:02:40;;;;;;;;;;;;;;;;;;5039474;28;20128;-71
2021/12/16 17:05:08;;;;;;;7.75;3.90;;;;;;;;;;5036810;28;19920;-74
2021/12/16 17:07:40;;;;;;;5.20;3.72;;;;;;;;;;5032659;28;20045;-73
2021/12/16 17:10:26;;;;;;;8.65;3.72;;;;;;;;;;5032166;28;20045;-73
2021/12/16 17:13:03;;;;;;;7.13;4.13;;;;;;;;;;5035082;28;20044;-73
2021/12/16 17:18:23;;;;;;;4.78;3.63;;;;;;;;;;4995531;28;20053;-72
2021/12/16 17:20:53;;;;;;;7.07;3.95;;;;;;;;;;5012332;28;20066;-72
2021/12/16 17:23:28;;;;;;;10.43;4.00;;;;;;;;;;5012759;28;20508;-75
2021/12/16 17:25:56;;;;;;;12.00;4.65;;;;;;;;;;5012595;28;20117;-73
2021/12/16 17:28:29;;;;;;;10.73;4.40;;;;;;;;;;5012966;28;20107;-73
2021/12/16 17:30:59;;;;;;;13.98;4.45;;;;;;;;;;5012753;28;20038;-77
2021/12/16 17:33:33;;;;;;;8.73;3.95;;;;;;;;;;5013084;28;20048;-72
2021/12/16 17:36:06;;;;;;;4.53;3.45;;;;;;;;;;5037545;28;20045;-74
2021/12/16 17:38:34;;;;;;;12.20;4.07;;;;;;;;;;5035746;28;20313;-73
2021/12/16 17:41:09;;;;;;;10.73;4.18;;;;;;;;;;5012547;28;20154;-72
2021/12/16 17:43:40;;;;;;;10.23;3.88;;;;;;;;;;5025182;28;20052;-72
2021/12/16 17:46:14;;;;;;;5.95;3.83;;;;;;;;;;5032014;28;20045;-74
2021/12/16 17:48:43;;;;;;;8.48;3.80;;;;;;;;;;5031315;28;20153;-74
2021/12/16 17:51:16;;;;;;;9.48;4.50;;;;;;;;;;5013187;28;20400;-74
2021/12/16 17:53:45;;;;;;;7.45;4.63;;;;;;;;;;5028986;28;20048;-73
2021/12/16 17:56:14;;;;;;;7.95;4.28;;;;;;;;;;5034321;28;20045;-71
2021/12/16 17:58:48;;;;;;;5.25;3.88;;;;;;;;;;5035452;28;20657;-73
2021/12/16 18:01:31;;;;;;;8.23;4.55;;;;;;;;;;5015326;28;20042;-72
2021/12/16 18:04:10;;;;;;;8.38;4.00;;;;;;;;;;5033457;28;20598;-72
2021/12/16 18:06:53;;;;;;;9.43;4.53;;;;;;;;;;5032727;28;20123;-73
2021/12/16 18:09:29;;;;;;;20.08;4.90;;;;;;;;;;5033545;28;20052;-75
2021/12/16 18:12:03;;;;;;;8.48;4.35;;;;;;;;;;5014847;28;20124;-75
2021/12/16 18:14:45;;;;;;;8.38;4.53;;;;;;;;;;5017237;28;20100;-73
2021/12/16 18:17:15;;;;;;;10.82;5.20;;;;;;;;;;5033900;28;20048;-73
2021/12/16 18:19:49;;;;;;;8.48;5.07;;;;;;;;;;5034861;28;20041;-74
2021/12/16 18:22:23;;;;;;;8.65;5.40;;;;;;;;;;5032480;28;20091;-75
2021/12/16 18:24:53;;;;;;;8.05;5.68;;;;;;;;;;5033332;28;21271;-73
2021/12/16 18:27:26;;;;;;;10.88;5.97;;;;;;;;;;5035549;28;20037;-74
2021/12/16 18:29:59;;;;;;;13.43;6.43;;;;;;;;;;5035182;28;20041;-74
2021/12/16 18:32:29;;;;;;;13.88;7.70;;;;;;;;;;5035090;28;20069;-73
2021/12/16 18:34:57;;;;;;;15.05;8.02;;;;;;;;;;5032288;28;20088;-73
2021/12/16 18:37:29;;;;;;;18.25;9.77;;;;;;;;;;5034347;28;20504;-73
2021/12/16 18:40:00;;;;;;;23.48;11.98;;;;;;;;;;5035146;28;20124;-75
2021/12/16 18:42:29;;;;;;;24.45;13.48;;;;;;;;;;5034168;28;20451;-74
2021/12/16 18:45:02;;;;;;;25.15;14.10;;;;;;;;;;5035102;28;20042;-73
2021/12/16 18:50:09;;;;;;;27.92;14.55;;;;;;;;;;5034711;28;20061;-74
2021/12/16 18:54:27;;;;;;;27.80;14.55;;;;;;;;;;5034434;28;20041;-73
2021/12/16 18:55:35;;;;;;;25.95;15.07;;;;;;;;;;5023990;28;20143;-73
2021/12/16 18:58:07;;;;;;;27.17;15.40;;;;;;;;;;5034212;28;20187;-75
2021/12/16 19:00:37;;;;;;;30.08;15.63;;;;;;;;;;5033667;28;20056;-74